createdAt,value
2023-01-13T00:01:48.025Z,5.90
2023-01-13T00:04:15.188Z,5.90
2023-01-13T00:06:42.410Z,5.90
2023-01-13T00:09:09.579Z,5.90
2023-01-13T00:11:36.778Z,6.00
2023-01-13T00:14:03.965Z,6.10
2023-01-13T00:16:31.169Z,6.20
2023-01-13T00:18:58.362Z,6.20
2023-01-13T00:21:25.662Z,6.10
2023-01-13T00:23:53.995Z,6.20
2023-01-13T00:26:22.671Z,6.20
2023-01-13T00:28:50.001Z,6.30
2023-01-13T00:31:18.551Z,6.20
2023-01-13T00:33:46.000Z,6.10
2023-01-13T00:36:14.745Z,6.00
2023-01-13T00:38:42.984Z,6.00
2023-01-13T00:41:20.587Z,6.00
2023-01-13T00:43:48.197Z,5.80
2023-01-13T00:46:16.942Z,5.70
2023-01-13T00:48:44.603Z,5.70
2023-01-13T00:51:13.360Z,5.60
2023-01-13T00:53:43.144Z,5.40
2023-01-13T00:56:16.888Z,5.40
2023-01-13T00:58:45.620Z,5.30
2023-01-13T01:01:14.646Z,5.30
2023-01-13T01:03:41.880Z,5.20
2023-01-13T01:06:13.394Z,5.20
2023-01-13T01:08:40.878Z,5.20
2023-01-13T01:11:09.347Z,5.20
2023-01-13T01:13:36.933Z,5.30
2023-01-13T01:16:08.115Z,5.50
2023-01-13T01:18:36.452Z,5.60
2023-01-13T01:21:04.109Z,5.60
2023-01-13T01:23:32.274Z,5.60
2023-01-13T01:26:19.055Z,5.70
2023-01-13T01:28:46.595Z,5.70
2023-01-13T01:31:24.354Z,5.70
2023-01-13T01:33:52.032Z,5.60
2023-01-13T01:36:20.169Z,5.60
2023-01-13T01:38:48.081Z,5.60
2023-01-13T01:41:19.674Z,5.50
2023-01-13T01:44:05.502Z,5.60
2023-01-13T01:46:39.997Z,5.70
2023-01-13T01:49:07.220Z,5.60
2023-01-13T01:51:36.892Z,5.40
2023-01-13T01:54:06.394Z,5.40
2023-01-13T01:56:33.953Z,5.40
2023-01-13T01:59:01.163Z,5.50
2023-01-13T02:01:28.924Z,5.70
2023-01-13T02:04:01.020Z,5.70
2023-01-13T02:06:29.851Z,5.70
2023-01-13T02:08:57.880Z,5.80
2023-01-13T02:11:52.058Z,5.80
2023-01-13T02:14:20.397Z,5.80
2023-01-13T02:16:52.820Z,5.80
2023-01-13T02:19:25.825Z,5.70
2023-01-13T02:22:05.195Z,5.60
2023-01-13T02:24:56.552Z,5.60
2023-01-13T02:27:42.570Z,5.60
2023-01-13T02:30:36.327Z,5.70
2023-01-13T02:33:22.257Z,5.90
2023-01-13T02:35:51.450Z,5.90
2023-01-13T02:38:21.111Z,5.80
2023-01-13T02:40:56.783Z,5.70
2023-01-13T02:43:47.229Z,5.70
2023-01-13T02:46:17.578Z,5.80
2023-01-13T02:48:45.627Z,5.90
2023-01-13T02:51:15.123Z,5.80
2023-01-13T02:53:47.965Z,5.70
2023-01-13T02:56:15.635Z,5.70
2023-01-13T02:58:44.019Z,5.70
2023-01-13T03:01:11.331Z,5.80
2023-01-13T03:03:38.577Z,5.80
2023-01-13T03:06:09.053Z,5.70
2023-01-13T03:08:54.571Z,5.50
2023-01-13T03:11:21.927Z,5.40
2023-01-13T03:14:09.036Z,5.30
2023-01-13T03:16:36.478Z,5.40
2023-01-13T03:19:09.765Z,5.40
2023-01-13T03:21:53.423Z,5.40
2023-01-13T03:24:30.082Z,5.60
2023-01-13T03:27:02.279Z,5.70
2023-01-13T03:29:32.256Z,5.70
2023-01-13T03:32:06.030Z,5.80
2023-01-13T03:34:37.175Z,5.80
2023-01-13T03:37:06.978Z,5.70
2023-01-13T03:39:36.252Z,5.70
2023-01-13T03:42:07.282Z,5.50
2023-01-13T03:44:40.507Z,5.30
2023-01-13T03:47:10.581Z,5.20
2023-01-13T03:49:41.697Z,5.30
2023-01-13T03:52:11.462Z,5.50
2023-01-13T03:54:42.699Z,5.50
2023-01-13T03:57:11.962Z,5.10
2023-01-13T03:59:41.455Z,5.00
2023-01-13T04:02:08.704Z,4.90
2023-01-13T04:04:39.698Z,4.70
2023-01-13T04:07:25.325Z,4.70
2023-01-13T04:09:52.531Z,4.80
2023-01-13T04:12:50.076Z,4.60
2023-01-13T04:15:24.810Z,4.40
2023-01-13T04:17:52.077Z,4.70
2023-01-13T04:20:19.338Z,5.10
2023-01-13T04:22:46.613Z,5.30
2023-01-13T04:25:13.819Z,5.40
2023-01-13T04:27:41.017Z,5.40
2023-01-13T04:30:08.584Z,4.80
2023-01-13T04:32:35.748Z,4.50
2023-01-13T04:35:03.874Z,4.40
2023-01-13T04:37:31.066Z,4.20
2023-01-13T04:39:58.549Z,4.30
2023-01-13T04:42:25.771Z,4.30
2023-01-13T04:44:53.038Z,4.30
2023-01-13T04:47:20.200Z,4.10
2023-01-13T04:49:47.389Z,4.10
2023-01-13T04:52:14.556Z,4.10
2023-01-13T04:54:41.752Z,4.50
2023-01-13T04:57:08.995Z,4.50
2023-01-13T04:59:36.178Z,4.40
2023-01-13T05:02:03.370Z,4.40
2023-01-13T05:04:30.601Z,4.40
2023-01-13T05:06:58.801Z,4.30
2023-01-13T05:09:26.011Z,4.40
2023-01-13T05:12:11.727Z,4.40
2023-01-13T05:14:57.614Z,4.40
2023-01-13T05:17:25.372Z,4.20
2023-01-13T05:19:52.549Z,4.10
2023-01-13T05:22:38.489Z,4.20
2023-01-13T05:25:28.037Z,4.10
2023-01-13T05:27:55.326Z,4.20
2023-01-13T05:30:23.820Z,4.10
2023-01-13T05:32:50.995Z,4.20
2023-01-13T05:35:18.468Z,4.10
2023-01-13T05:37:45.699Z,4.00
2023-01-13T05:40:32.424Z,3.90
2023-01-13T05:43:20.778Z,4.00
2023-01-13T05:45:48.909Z,3.90
2023-01-13T05:48:16.559Z,3.90
2023-01-13T05:50:44.760Z,4.10
2023-01-13T05:53:11.969Z,4.20
2023-01-13T05:55:39.926Z,4.50
2023-01-13T05:58:10.630Z,4.80
2023-01-13T06:00:37.878Z,5.00
2023-01-13T06:03:05.380Z,4.90
2023-01-13T06:05:33.110Z,4.90
2023-01-13T06:08:00.932Z,5.00
2023-01-13T06:10:28.981Z,4.90
2023-01-13T06:12:56.503Z,4.60
2023-01-13T06:15:23.956Z,4.30
2023-01-13T06:17:51.378Z,4.30
2023-01-13T06:20:18.698Z,4.30
2023-01-13T06:22:47.463Z,4.40
2023-01-13T06:25:26.944Z,4.30
2023-01-13T06:27:55.688Z,4.20
2023-01-13T06:30:22.971Z,4.10
2023-01-13T06:32:53.416Z,4.10
2023-01-13T06:35:23.737Z,4.00
2023-01-13T06:37:52.456Z,4.00
2023-01-13T06:40:19.721Z,4.00
2023-01-13T06:43:05.384Z,4.00
2023-01-13T06:45:32.637Z,3.70
2023-01-13T06:48:00.697Z,4.00
2023-01-13T06:50:28.530Z,4.30
2023-01-13T06:52:55.825Z,4.30
2023-01-13T06:55:23.030Z,4.20
2023-01-13T06:57:54.537Z,4.20
2023-01-13T07:00:22.370Z,4.00
2023-01-13T07:02:50.094Z,3.90
2023-01-13T07:05:17.819Z,4.00
2023-01-13T07:07:45.033Z,3.90
2023-01-13T07:10:14.313Z,3.90
2023-01-13T07:12:59.972Z,4.00
2023-01-13T07:15:27.299Z,4.20
2023-01-13T07:17:54.529Z,4.30
2023-01-13T07:20:21.783Z,4.30
2023-01-13T07:22:53.460Z,4.30
2023-01-13T07:25:21.095Z,4.30
2023-01-13T07:27:48.375Z,4.20
2023-01-13T07:30:15.745Z,4.20
2023-01-13T07:32:42.895Z,4.20
2023-01-13T07:35:10.087Z,3.90
2023-01-13T07:37:37.581Z,4.20
2023-01-13T07:40:05.531Z,4.30
2023-01-13T07:42:51.232Z,4.10
2023-01-13T07:45:18.460Z,4.10
2023-01-13T07:47:45.641Z,4.20
2023-01-13T07:50:12.934Z,4.20
2023-01-13T07:52:40.116Z,4.40
2023-01-13T07:55:07.475Z,4.30
2023-01-13T07:57:34.692Z,4.60
2023-01-13T08:00:02.378Z,4.90
2023-01-13T08:02:32.164Z,5.00
2023-01-13T08:04:59.440Z,5.00
2023-01-13T08:07:26.606Z,5.10
2023-01-13T08:09:53.816Z,5.30
2023-01-13T08:12:39.490Z,5.30
2023-01-13T08:15:18.960Z,5.50
2023-01-13T08:17:46.191Z,5.60
2023-01-13T08:20:13.386Z,5.60
2023-01-13T08:22:40.578Z,5.60
2023-01-13T08:25:08.055Z,5.90
2023-01-13T08:27:35.372Z,6.20
2023-01-13T08:30:02.673Z,6.30
2023-01-13T08:32:29.865Z,6.30
2023-01-13T08:34:57.052Z,6.30
2023-01-13T08:37:24.244Z,6.40
2023-01-13T08:39:51.487Z,6.50
2023-01-13T08:42:18.741Z,6.50
2023-01-13T08:44:45.949Z,6.60
2023-01-13T08:47:13.206Z,6.60
2023-01-13T08:49:40.484Z,6.60
2023-01-13T08:52:08.027Z,6.90
2023-01-13T08:54:38.528Z,7.00
2023-01-13T08:57:05.969Z,7.00
2023-01-13T08:59:33.293Z,7.00
2023-01-13T09:02:01.015Z,7.00
2023-01-13T09:04:29.094Z,7.00
2023-01-13T09:06:56.642Z,7.10
2023-01-13T09:09:25.430Z,7.10
2023-01-13T09:12:27.758Z,7.30
2023-01-13T09:14:54.977Z,7.40
2023-01-13T09:17:23.158Z,7.40
2023-01-13T09:19:50.389Z,7.60
2023-01-13T09:22:18.554Z,7.50
2023-01-13T09:24:46.271Z,7.70
2023-01-13T09:27:14.738Z,7.80
2023-01-13T09:29:41.933Z,7.80
2023-01-13T09:32:12.769Z,7.70
2023-01-13T09:34:58.746Z,7.80
2023-01-13T09:37:36.593Z,8.00
2023-01-13T09:40:05.378Z,7.90
2023-01-13T09:43:10.344Z,8.10
2023-01-13T09:45:41.998Z,8.10
2023-01-13T09:48:28.087Z,8.40
2023-01-13T09:51:01.340Z,8.40
2023-01-13T09:53:28.576Z,8.40
2023-01-13T09:55:55.892Z,8.40
2023-01-13T09:58:25.371Z,8.40
2023-01-13T10:00:55.380Z,8.30
2023-01-13T10:03:32.730Z,8.30
2023-01-13T10:06:04.618Z,8.30
2023-01-13T10:08:33.394Z,8.30
2023-01-13T10:11:22.233Z,8.50
2023-01-13T10:13:54.593Z,8.50
2023-01-13T10:16:36.689Z,8.60
2023-01-13T10:19:09.994Z,8.40
2023-01-13T10:21:45.576Z,8.60
2023-01-13T10:24:19.875Z,8.70
2023-01-13T10:26:50.170Z,8.60
2023-01-13T10:29:22.311Z,8.50
2023-01-13T10:31:49.797Z,8.60
2023-01-13T10:34:17.483Z,8.60
2023-01-13T10:36:53.853Z,8.70
2023-01-13T10:39:21.324Z,8.60
2023-01-13T10:41:48.768Z,8.70
2023-01-13T10:44:17.042Z,8.50
2023-01-13T10:46:53.452Z,8.50
2023-01-13T10:49:31.148Z,8.70
2023-01-13T10:51:58.961Z,8.60
2023-01-13T10:54:26.380Z,8.50
2023-01-13T10:57:18.673Z,8.70
2023-01-13T10:59:46.033Z,8.70
2023-01-13T11:02:31.789Z,8.70
2023-01-13T11:05:17.230Z,8.70
2023-01-13T11:07:52.599Z,8.60
2023-01-13T11:10:22.300Z,8.70
2023-01-13T11:12:51.962Z,8.70
2023-01-13T11:15:22.551Z,8.80
2023-01-13T11:18:00.409Z,8.80
2023-01-13T11:20:33.725Z,8.80
2023-01-13T11:23:02.999Z,8.90
2023-01-13T11:25:42.154Z,9.10
2023-01-13T11:28:28.386Z,9.10
2023-01-13T11:30:55.603Z,9.10
2023-01-13T11:33:36.474Z,9.30
2023-01-13T11:36:11.106Z,9.30
2023-01-13T11:38:53.723Z,9.20
2023-01-13T11:41:30.038Z,9.30
2023-01-13T11:44:17.791Z,9.00
2023-01-13T11:46:47.830Z,9.10
2023-01-13T11:49:22.274Z,9.10
2023-01-13T11:51:53.110Z,9.00
2023-01-13T11:54:28.437Z,9.20
2023-01-13T11:56:58.695Z,9.20
2023-01-13T11:59:25.947Z,9.40
2023-01-13T12:02:05.327Z,9.40
2023-01-13T12:04:39.386Z,9.30
2023-01-13T12:07:17.471Z,9.40
2023-01-13T12:10:03.966Z,9.50
2023-01-13T12:12:34.743Z,9.30
2023-01-13T12:15:05.099Z,9.40
2023-01-13T12:17:55.276Z,9.50
2023-01-13T12:20:28.160Z,9.30
2023-01-13T12:22:57.805Z,9.30
2023-01-13T12:25:32.537Z,9.30
2023-01-13T12:28:03.427Z,9.30
2023-01-13T12:30:39.246Z,9.40
2023-01-13T12:33:16.776Z,9.50
2023-01-13T12:35:50.859Z,9.50
2023-01-13T12:38:23.677Z,9.40
2023-01-13T12:41:13.957Z,9.40
2023-01-13T12:44:02.867Z,9.50
2023-01-13T12:46:30.050Z,9.70
2023-01-13T12:49:04.541Z,9.80
2023-01-13T12:51:35.673Z,9.70
2023-01-13T12:54:26.139Z,9.70
2023-01-13T12:56:54.093Z,9.60
2023-01-13T12:59:23.941Z,9.60
2023-01-13T13:02:09.772Z,9.60
2023-01-13T13:04:42.835Z,9.80
2023-01-13T13:07:12.998Z,9.90
2023-01-13T13:09:44.873Z,9.70
2023-01-13T13:12:48.993Z,9.80
2023-01-13T13:15:20.810Z,10.00
2023-01-13T13:18:00.097Z,10.00
2023-01-13T13:20:46.552Z,10.10
2023-01-13T13:23:32.239Z,10.00
2023-01-13T13:26:05.388Z,10.10
2023-01-13T13:28:46.388Z,10.00
2023-01-13T13:31:21.286Z,10.10
2023-01-13T13:34:03.602Z,10.20
2023-01-13T13:36:43.005Z,10.20
2023-01-13T13:39:31.775Z,10.20
2023-01-13T13:42:23.360Z,10.10
2023-01-13T13:45:09.218Z,10.10
2023-01-13T13:47:37.399Z,10.40
2023-01-13T13:50:22.573Z,10.20
2023-01-13T13:52:54.477Z,10.20
2023-01-13T13:55:22.954Z,10.10
2023-01-13T13:57:51.378Z,10.40
2023-01-13T14:00:33.109Z,10.30
2023-01-13T14:03:05.940Z,10.30
2023-01-13T14:05:37.013Z,10.30
2023-01-13T14:08:15.334Z,10.20
2023-01-13T14:10:44.869Z,10.20
2023-01-13T14:13:21.486Z,10.20
2023-01-13T14:15:59.123Z,10.20
2023-01-13T14:18:27.433Z,10.20
2023-01-13T14:20:55.663Z,10.20
2023-01-13T14:23:27.708Z,10.30
2023-01-13T14:25:55.439Z,10.30
2023-01-13T14:28:22.651Z,10.40
2023-01-13T14:30:50.925Z,10.60
2023-01-13T14:33:20.862Z,10.50
2023-01-13T14:36:04.198Z,10.60
2023-01-13T14:38:31.552Z,10.70
2023-01-13T14:41:08.806Z,10.70
2023-01-13T14:43:42.199Z,10.80
2023-01-13T14:46:09.635Z,10.80
2023-01-13T14:48:39.538Z,10.80
2023-01-13T14:51:10.783Z,10.90
2023-01-13T14:53:38.033Z,10.70
2023-01-13T14:56:24.214Z,10.70
2023-01-13T14:58:51.483Z,10.50
2023-01-13T15:01:47.869Z,10.40
2023-01-13T15:04:16.132Z,10.30
2023-01-13T15:06:46.042Z,10.20
2023-01-13T15:09:13.559Z,10.00
2023-01-13T15:11:40.996Z,9.90
2023-01-13T15:14:10.232Z,9.80
2023-01-13T15:16:37.471Z,9.60
2023-01-13T15:19:04.796Z,9.50
2023-01-13T15:21:32.037Z,9.50
2023-01-13T15:23:59.875Z,9.50
2023-01-13T15:26:28.762Z,9.40
2023-01-13T15:28:57.224Z,9.30
2023-01-13T15:31:25.300Z,9.10
2023-01-13T15:33:52.522Z,9.10
2023-01-13T15:36:24.836Z,9.10
2023-01-13T15:38:52.083Z,9.00
2023-01-13T15:41:39.473Z,8.80
2023-01-13T15:44:25.190Z,8.60
2023-01-13T15:46:52.516Z,8.40
2023-01-13T15:49:39.725Z,8.30
2023-01-13T15:52:16.002Z,8.30
2023-01-13T15:54:43.183Z,7.90
2023-01-13T15:57:19.285Z,7.80
2023-01-13T15:59:46.517Z,7.50
2023-01-13T16:02:18.309Z,7.40
2023-01-13T16:04:45.651Z,7.30
2023-01-13T16:07:14.898Z,7.40
2023-01-13T16:09:42.064Z,7.30
2023-01-13T16:12:09.302Z,7.20
2023-01-13T16:14:36.799Z,7.30
2023-01-13T16:17:11.670Z,7.00
2023-01-13T16:19:38.891Z,6.80
2023-01-13T16:22:06.103Z,6.80
2023-01-13T16:24:33.322Z,6.50
2023-01-13T16:27:00.531Z,6.30
2023-01-13T16:29:27.752Z,6.40
2023-01-13T16:31:54.991Z,6.10
2023-01-13T16:34:22.158Z,5.90
2023-01-13T16:36:50.286Z,5.70
2023-01-13T16:39:21.715Z,5.70
2023-01-13T16:41:49.319Z,5.80
2023-01-13T16:44:16.539Z,5.90
2023-01-13T16:46:47.511Z,5.80
2023-01-13T16:49:15.682Z,5.80
2023-01-13T16:51:43.309Z,5.90
2023-01-13T16:54:11.907Z,5.90
2023-01-13T16:56:39.157Z,5.60
2023-01-13T16:59:07.763Z,5.30
2023-01-13T17:01:37.279Z,5.30
2023-01-13T17:04:05.292Z,5.30
2023-01-13T17:06:39.849Z,5.30
2023-01-13T17:09:21.273Z,5.40
2023-01-13T17:11:48.686Z,5.60
2023-01-13T17:14:19.004Z,5.70
2023-01-13T17:16:46.956Z,5.40
2023-01-13T17:19:14.341Z,5.10
2023-01-13T17:21:42.364Z,5.20
2023-01-13T17:24:10.721Z,5.50
2023-01-13T17:26:47.217Z,5.80
2023-01-13T17:29:16.011Z,5.70
2023-01-13T17:31:43.319Z,5.40
2023-01-13T17:34:11.205Z,5.30
2023-01-13T17:36:38.415Z,5.20
2023-01-13T17:39:05.658Z,5.20
2023-01-13T17:41:32.830Z,5.20
2023-01-13T17:43:59.997Z,5.30
2023-01-13T17:46:27.204Z,5.40
2023-01-13T17:48:54.692Z,5.30
2023-01-13T17:51:22.820Z,5.40
2023-01-13T17:53:50.017Z,5.60
2023-01-13T17:56:18.669Z,5.80
2023-01-13T17:58:46.771Z,6.00
2023-01-13T18:01:15.607Z,6.20
2023-01-13T18:03:42.921Z,6.20
2023-01-13T18:06:19.492Z,6.00
2023-01-13T18:08:46.912Z,5.50
2023-01-13T18:11:14.428Z,5.30
2023-01-13T18:13:43.233Z,5.10
2023-01-13T18:16:11.404Z,5.10
2023-01-13T18:18:39.803Z,4.90
2023-01-13T18:21:26.101Z,4.80
2023-01-13T18:24:11.964Z,4.50
2023-01-13T18:26:57.999Z,4.60
2023-01-13T18:29:25.503Z,4.50
2023-01-13T18:31:52.692Z,4.30
2023-01-13T18:34:20.331Z,4.30
2023-01-13T18:36:47.603Z,4.20
2023-01-13T18:39:14.828Z,4.20
2023-01-13T18:42:00.816Z,4.10
2023-01-13T18:44:28.034Z,4.10
2023-01-13T18:46:55.253Z,4.00
2023-01-13T18:49:22.549Z,3.80
2023-01-13T18:51:49.935Z,3.80
2023-01-13T18:54:17.141Z,4.00
2023-01-13T18:56:44.448Z,4.70
2023-01-13T18:59:11.602Z,5.10
2023-01-13T19:01:39.110Z,5.30
2023-01-13T19:04:10.582Z,5.50
2023-01-13T19:06:39.856Z,5.30
2023-01-13T19:09:11.182Z,5.30
2023-01-13T19:11:38.843Z,5.30
2023-01-13T19:14:06.048Z,5.40
2023-01-13T19:16:33.263Z,5.50
2023-01-13T19:19:01.371Z,5.40
2023-01-13T19:21:28.549Z,5.30
2023-01-13T19:23:56.254Z,5.10
2023-01-13T19:26:23.422Z,5.00
2023-01-13T19:28:50.749Z,4.60
2023-01-13T19:31:20.532Z,4.50
2023-01-13T19:33:47.837Z,4.20
2023-01-13T19:36:15.007Z,4.30
2023-01-13T19:38:42.226Z,4.80
2023-01-13T19:41:33.363Z,5.00
2023-01-13T19:44:19.234Z,5.20
2023-01-13T19:46:46.453Z,5.30
2023-01-13T19:49:13.657Z,5.30
2023-01-13T19:51:40.907Z,5.40
2023-01-13T19:54:08.117Z,5.20
2023-01-13T19:56:35.328Z,5.00
2023-01-13T19:59:02.592Z,5.10
2023-01-13T20:01:35.018Z,5.00
2023-01-13T20:04:03.324Z,4.70
2023-01-13T20:06:32.069Z,4.30
2023-01-13T20:08:59.479Z,4.30
2023-01-13T20:11:31.372Z,4.20
2023-01-13T20:13:59.576Z,4.70
2023-01-13T20:16:28.004Z,5.10
2023-01-13T20:18:55.619Z,5.10
2023-01-13T20:21:23.079Z,4.90
2023-01-13T20:23:51.348Z,5.10
2023-01-13T20:26:19.003Z,4.90
2023-01-13T20:28:46.900Z,4.40
2023-01-13T20:31:14.829Z,4.00
2023-01-13T20:33:42.456Z,3.80
2023-01-13T20:36:20.176Z,3.70
2023-01-13T20:38:47.358Z,3.80
2023-01-13T20:41:33.128Z,4.30
2023-01-13T20:44:00.321Z,4.60
2023-01-13T20:46:27.745Z,4.40
2023-01-13T20:48:55.010Z,4.60
2023-01-13T20:51:22.238Z,4.70
2023-01-13T20:53:49.470Z,4.20
2023-01-13T20:56:16.655Z,4.00
2023-01-13T20:58:44.198Z,3.80
2023-01-13T21:01:11.498Z,3.50
2023-01-13T21:03:38.784Z,3.30
2023-01-13T21:06:06.129Z,3.70
2023-01-13T21:08:33.306Z,4.10
2023-01-13T21:11:03.703Z,3.90
2023-01-13T21:13:51.024Z,3.50
2023-01-13T21:16:18.360Z,3.20
2023-01-13T21:19:04.203Z,3.10
2023-01-13T21:21:31.404Z,3.00
2023-01-13T21:23:58.662Z,3.00
2023-01-13T21:26:25.943Z,2.90
2023-01-13T21:28:56.268Z,2.80
2023-01-13T21:31:25.407Z,2.50
2023-01-13T21:33:54.273Z,2.50
2023-01-13T21:36:21.746Z,2.70
2023-01-13T21:38:55.858Z,2.70
2023-01-13T21:41:41.987Z,2.60
2023-01-13T21:44:38.627Z,2.50
2023-01-13T21:47:32.185Z,2.60
2023-01-13T21:49:59.540Z,2.70
2023-01-13T21:52:26.825Z,2.90
2023-01-13T21:55:12.649Z,2.60
2023-01-13T21:57:40.001Z,2.50
2023-01-13T22:00:07.531Z,2.70
2023-01-13T22:02:35.887Z,3.10
2023-01-13T22:05:04.360Z,3.00
2023-01-13T22:07:34.774Z,2.80
2023-01-13T22:10:02.122Z,2.50
2023-01-13T22:12:29.896Z,2.30
2023-01-13T22:14:57.219Z,2.30
2023-01-13T22:17:25.922Z,2.20
2023-01-13T22:19:54.248Z,2.30
2023-01-13T22:22:21.979Z,2.10
2023-01-13T22:24:50.431Z,2.10
2023-01-13T22:27:19.138Z,2.30
2023-01-13T22:29:46.667Z,2.20
2023-01-13T22:32:14.269Z,2.50
2023-01-13T22:34:41.523Z,2.70
2023-01-13T22:37:08.764Z,2.30
2023-01-13T22:39:36.003Z,2.30
2023-01-13T22:42:03.345Z,2.30
2023-01-13T22:44:30.713Z,2.10
2023-01-13T22:46:58.019Z,2.00
2023-01-13T22:49:25.668Z,2.00
2023-01-13T22:51:52.917Z,2.00
2023-01-13T22:54:20.216Z,2.00
2023-01-13T22:56:47.447Z,2.10
2023-01-13T22:59:15.983Z,2.20
2023-01-13T23:01:43.494Z,2.40
2023-01-13T23:04:11.937Z,2.60
2023-01-13T23:06:39.840Z,2.40
2023-01-13T23:09:07.595Z,2.20
2023-01-13T23:11:35.312Z,2.40
2023-01-13T23:14:03.636Z,2.20
2023-01-13T23:16:31.276Z,1.90
2023-01-13T23:18:58.427Z,2.10
2023-01-13T23:21:27.156Z,2.00
2023-01-13T23:23:54.753Z,1.90
2023-01-13T23:26:22.003Z,1.90
2023-01-13T23:28:49.636Z,2.20
2023-01-13T23:31:21.024Z,2.30
2023-01-13T23:33:48.578Z,2.00
2023-01-13T23:36:20.485Z,1.90
2023-01-13T23:38:47.774Z,2.00
2023-01-13T23:41:15.755Z,2.00
2023-01-13T23:43:43.103Z,1.80
2023-01-13T23:46:12.453Z,1.50
2023-01-13T23:48:39.707Z,1.40
2023-01-13T23:51:08.517Z,1.50
2023-01-13T23:53:39.992Z,1.50
2023-01-13T23:56:08.783Z,1.90
2023-01-13T23:58:36.035Z,1.80
